createdAt,value
2023-08-05T00:01:35.779Z,100129.50
2023-08-05T00:04:37.359Z,100135.53
2023-08-05T00:07:38.954Z,100148.47
2023-08-05T00:10:42.950Z,100159.56
2023-08-05T00:13:45.834Z,100170.97
2023-08-05T00:16:47.421Z,100173.34
2023-08-05T00:19:49.192Z,100179.34
2023-08-05T00:22:50.792Z,100207.06
2023-08-05T00:25:52.328Z,100193.94
2023-08-05T00:28:55.081Z,100206.31
2023-08-05T00:31:56.609Z,100225.25
2023-08-05T00:34:58.035Z,100234.50
2023-08-05T00:37:59.724Z,100259.06
2023-08-05T00:41:01.303Z,100266.72
2023-08-05T00:44:04.564Z,100289.59
2023-08-05T00:47:06.880Z,100332.91
2023-08-05T00:50:09.736Z,100339.13
2023-08-05T00:53:11.342Z,100374.56
2023-08-05T00:56:12.865Z,100386.97
2023-08-05T00:59:16.003Z,100400.34
2023-08-05T01:02:17.704Z,100400.72
2023-08-05T01:05:20.035Z,100431.84
2023-08-05T01:08:22.554Z,100451.50
2023-08-05T01:11:24.379Z,100456.41
2023-08-05T01:14:27.462Z,100455.13
2023-08-05T01:17:28.987Z,100437.06
2023-08-05T01:20:31.971Z,100456.38
2023-08-05T01:23:37.202Z,100453.31
2023-08-05T01:26:40.303Z,100479.25
2023-08-05T01:29:42.163Z,100498.91
2023-08-05T01:32:43.963Z,100523.00
2023-08-05T01:35:48.427Z,100534.78
2023-08-05T01:38:51.108Z,100541.53
2023-08-05T01:41:54.149Z,100542.97
2023-08-05T01:44:55.690Z,100566.41
2023-08-05T01:47:57.138Z,100574.53
2023-08-05T01:50:58.838Z,100603.75
2023-08-05T01:54:00.400Z,100618.91
2023-08-05T01:57:03.391Z,100626.97
2023-08-05T02:00:06.513Z,100641.59
2023-08-05T02:03:15.154Z,100657.13
2023-08-05T02:06:16.874Z,100672.59
2023-08-05T02:09:18.311Z,100680.44
2023-08-05T02:12:21.194Z,100701.22
2023-08-05T02:15:22.813Z,100729.72
2023-08-05T02:18:24.222Z,100748.22
2023-08-05T02:21:25.996Z,100762.88
2023-08-05T02:24:27.554Z,100770.47
2023-08-05T02:27:30.294Z,100780.59
2023-08-05T02:30:34.976Z,100799.91
2023-08-05T02:33:37.087Z,100813.06
2023-08-05T02:36:38.499Z,100822.63
2023-08-05T02:39:40.091Z,100825.56
2023-08-05T02:42:43.833Z,100830.06
2023-08-05T02:45:45.378Z,100834.91
2023-08-05T02:48:46.816Z,100833.78
2023-08-05T02:51:48.401Z,100846.19
2023-08-05T02:54:49.825Z,100858.16
2023-08-05T02:57:52.748Z,100875.81
2023-08-05T03:00:54.474Z,100884.13
2023-08-05T03:03:56.359Z,100899.22
2023-08-05T03:06:57.994Z,100897.25
2023-08-05T03:10:00.238Z,100906.84
2023-08-05T03:13:03.255Z,100911.19
2023-08-05T03:16:09.582Z,100913.88
2023-08-05T03:19:12.477Z,100916.06
2023-08-05T03:22:14.083Z,100904.44
2023-08-05T03:25:18.743Z,100921.03
2023-08-05T03:28:21.623Z,100928.53
2023-08-05T03:31:26.873Z,100929.53
2023-08-05T03:34:28.731Z,100939.13
2023-08-05T03:37:32.415Z,100945.50
2023-08-05T03:40:34.049Z,100955.41
2023-08-05T03:43:37.023Z,100954.03
2023-08-05T03:46:39.116Z,100955.00
2023-08-05T03:49:40.660Z,100951.09
2023-08-05T03:52:42.048Z,100949.94
2023-08-05T03:55:43.783Z,100956.59
2023-08-05T03:58:47.182Z,100959.19
2023-08-05T04:01:48.968Z,100962.63
2023-08-05T04:04:51.018Z,100965.00
2023-08-05T04:07:52.613Z,100959.94
2023-08-05T04:10:54.043Z,100963.78
2023-08-05T04:13:56.944Z,100973.38
2023-08-05T04:16:58.605Z,100977.06
2023-08-05T04:20:00.966Z,100981.41
2023-08-05T04:23:03.037Z,101004.16
2023-08-05T04:26:04.653Z,101009.38
2023-08-05T04:29:07.766Z,100997.16
2023-08-05T04:32:09.411Z,101034.72
2023-08-05T04:35:10.960Z,101030.91
2023-08-05T04:38:12.530Z,101017.78
2023-08-05T04:41:13.946Z,100967.53
2023-08-05T04:44:16.856Z,100943.38
2023-08-05T04:47:19.170Z,100929.00
2023-08-05T04:50:27.577Z,100958.00
2023-08-05T04:53:29.123Z,101040.75
2023-08-05T04:56:30.551Z,101110.53
2023-08-05T04:59:33.632Z,101121.09
2023-08-05T05:02:35.462Z,101077.59
2023-08-05T05:05:37.093Z,100995.59
2023-08-05T05:08:39.067Z,100832.09
2023-08-05T05:11:40.642Z,100711.63
2023-08-05T05:14:45.640Z,100538.34
2023-08-05T05:17:47.361Z,100416.22
2023-08-05T05:20:50.382Z,100220.97
2023-08-05T05:23:51.932Z,100199.84
2023-08-05T05:26:53.693Z,100195.75
2023-08-05T05:29:56.913Z,100144.16
2023-08-05T05:32:58.457Z,100005.59
2023-08-05T05:36:03.542Z,99805.00
2023-08-05T05:39:05.085Z,99714.25
2023-08-05T05:42:06.834Z,99574.94
2023-08-05T05:45:10.781Z,99483.00
2023-08-05T05:48:12.418Z,99389.25
2023-08-05T05:51:14.281Z,99345.03
2023-08-05T05:54:15.926Z,99385.66
2023-08-05T05:57:17.466Z,99427.44
2023-08-05T06:00:20.400Z,99426.19
2023-08-05T06:03:22.122Z,99417.41
2023-08-05T06:06:23.882Z,99425.81
2023-08-05T06:09:25.494Z,99396.69
2023-08-05T06:12:27.195Z,99389.22
2023-08-05T06:15:30.780Z,99380.50
2023-08-05T06:18:32.350Z,99381.19
2023-08-05T06:21:33.918Z,99341.94
2023-08-05T06:24:35.456Z,99308.31
2023-08-05T06:27:36.987Z,99294.38
2023-08-05T06:30:44.261Z,99268.28
2023-08-05T06:33:45.813Z,99253.59
2023-08-05T06:36:47.482Z,99289.66
2023-08-05T06:39:49.036Z,99296.72
2023-08-05T06:42:50.616Z,99286.13
2023-08-05T06:45:53.614Z,99343.53
2023-08-05T06:48:55.281Z,99306.94
2023-08-05T06:51:58.582Z,99226.03
2023-08-05T06:55:00.517Z,99176.09
2023-08-05T06:58:02.351Z,99178.28
2023-08-05T07:01:05.454Z,99202.88
2023-08-05T07:04:07.020Z,99152.66
2023-08-05T07:07:11.698Z,99159.47
2023-08-05T07:10:17.720Z,99131.06
2023-08-05T07:13:21.069Z,99143.81
2023-08-05T07:16:24.051Z,99164.47
2023-08-05T07:19:25.824Z,99113.47
2023-08-05T07:22:33.724Z,99132.28
2023-08-05T07:25:35.362Z,99112.06
2023-08-05T07:28:38.099Z,99086.47
2023-08-05T07:31:41.260Z,99067.78
2023-08-05T07:34:42.817Z,99113.06
2023-08-05T07:37:44.388Z,99114.41
2023-08-05T07:40:50.359Z,99084.94
2023-08-05T07:43:51.917Z,99025.75
2023-08-05T07:46:54.825Z,99017.63
2023-08-05T07:49:56.391Z,98996.50
2023-08-05T07:52:57.910Z,99018.50
2023-08-05T07:56:09.696Z,99037.00
2023-08-05T07:59:11.473Z,99049.63
2023-08-05T08:02:15.619Z,99009.78
2023-08-05T08:05:17.520Z,99070.09
2023-08-05T08:08:19.327Z,99034.53
2023-08-05T08:11:20.906Z,99081.81
2023-08-05T08:14:22.573Z,99127.72
2023-08-05T08:17:26.820Z,99027.44
2023-08-05T08:20:28.409Z,99083.38
2023-08-05T08:23:30.018Z,99108.28
2023-08-05T08:26:31.605Z,99006.50
2023-08-05T08:29:33.556Z,98995.41
2023-08-05T08:32:36.760Z,99040.31
2023-08-05T08:35:38.445Z,98893.66
2023-08-05T08:38:40.039Z,98839.16
2023-08-05T08:41:47.016Z,98865.91
2023-08-05T08:44:49.890Z,98813.13
2023-08-05T08:47:53.393Z,98905.72
2023-08-05T08:50:55.985Z,98876.78
2023-08-05T08:54:07.568Z,98756.03
2023-08-05T08:57:09.508Z,98762.13
2023-08-05T09:00:12.396Z,98621.78
2023-08-05T09:03:15.751Z,98624.78
2023-08-05T09:06:18.952Z,98724.78
2023-08-05T09:09:20.599Z,98867.88
2023-08-05T09:12:26.978Z,98812.28
2023-08-05T09:15:32.515Z,98835.56
2023-08-05T09:18:43.656Z,98743.44
2023-08-05T09:21:45.763Z,98664.28
2023-08-05T09:24:47.782Z,98609.44
2023-08-05T09:27:49.459Z,98685.13
2023-08-05T09:30:52.865Z,98679.81
2023-08-05T09:33:57.924Z,98640.81
2023-08-05T09:37:00.184Z,98512.97
2023-08-05T09:40:06.523Z,98555.16
2023-08-05T09:43:11.448Z,98560.69
2023-08-05T09:46:13.487Z,98527.38
2023-08-05T09:49:24.005Z,98625.16
2023-08-05T09:52:26.798Z,98631.81
2023-08-05T09:55:29.032Z,98653.44
2023-08-05T09:58:30.769Z,98644.56
2023-08-05T10:01:32.486Z,98748.31
2023-08-05T10:04:35.497Z,98594.84
2023-08-05T10:07:38.206Z,98673.50
2023-08-05T10:10:40.475Z,98684.72
2023-08-05T10:13:44.638Z,98822.53
2023-08-05T10:16:46.975Z,98713.88
2023-08-05T10:19:51.535Z,98762.47
2023-08-05T10:23:03.914Z,98595.06
2023-08-05T10:26:06.527Z,98406.09
2023-08-05T10:29:26.559Z,98356.53
2023-08-05T10:32:28.898Z,98202.88
2023-08-05T10:35:33.237Z,98371.41
2023-08-05T10:38:41.959Z,98407.25
2023-08-05T10:41:43.639Z,98344.19
2023-08-05T10:44:45.406Z,98399.22
2023-08-05T10:47:48.317Z,98492.06
2023-08-05T10:50:52.265Z,98205.41
2023-08-05T10:54:00.320Z,98107.16
2023-08-05T10:57:15.594Z,98036.44
2023-08-05T11:00:19.581Z,98227.13
2023-08-05T11:03:32.000Z,98277.75
2023-08-05T11:06:36.577Z,98301.25
2023-08-05T11:09:38.609Z,98397.72
2023-08-05T11:12:40.566Z,98419.16
2023-08-05T11:15:42.570Z,98541.53
2023-08-05T11:18:45.423Z,98467.19
2023-08-05T11:21:48.399Z,98349.75
2023-08-05T11:24:55.838Z,98387.03
2023-08-05T11:27:57.536Z,98330.97
2023-08-05T11:30:59.237Z,98204.28
2023-08-05T11:34:00.834Z,98362.78
2023-08-05T11:37:04.171Z,98274.28
2023-08-05T11:40:09.220Z,98202.06
2023-08-05T11:43:11.997Z,98023.75
2023-08-05T11:46:24.529Z,98347.25
2023-08-05T11:49:26.590Z,98388.47
2023-08-05T11:52:29.528Z,98388.69
2023-08-05T11:55:34.091Z,98065.75
2023-08-05T11:58:35.648Z,98014.22
2023-08-05T12:01:40.677Z,98004.00
2023-08-05T12:04:43.769Z,98057.59
2023-08-05T12:07:46.756Z,98424.63
2023-08-05T12:10:57.590Z,98051.72
2023-08-05T12:13:59.356Z,97950.31
2023-08-05T12:17:01.036Z,98108.59
2023-08-05T12:20:04.557Z,98036.97
2023-08-05T12:23:07.563Z,98076.06
2023-08-05T12:26:10.496Z,97908.16
2023-08-05T12:29:12.058Z,98181.28
2023-08-05T12:32:13.930Z,98055.41
2023-08-05T12:35:15.596Z,97783.13
2023-08-05T12:38:18.538Z,97940.19
2023-08-05T12:41:20.049Z,98343.47
2023-08-05T12:44:22.035Z,98280.06
2023-08-05T12:47:23.630Z,98249.50
2023-08-05T12:50:25.375Z,98078.34
2023-08-05T12:53:34.862Z,97926.91
2023-08-05T12:56:36.421Z,98252.09
2023-08-05T12:59:38.251Z,97969.16
2023-08-05T13:02:39.944Z,98174.34
2023-08-05T13:05:41.569Z,98108.63
2023-08-05T13:08:44.493Z,98165.84
2023-08-05T13:11:46.104Z,98270.75
2023-08-05T13:14:47.904Z,98217.34
2023-08-05T13:17:49.450Z,98038.91
2023-08-05T13:20:51.075Z,98068.69
2023-08-05T13:23:54.005Z,98028.09
2023-08-05T13:26:55.614Z,98109.91
2023-08-05T13:29:57.187Z,97793.00
2023-08-05T13:32:59.187Z,98018.28
2023-08-05T13:36:00.758Z,97997.72
2023-08-05T13:39:04.216Z,98064.88
2023-08-05T13:42:06.332Z,98159.13
2023-08-05T13:45:08.791Z,98348.91
2023-08-05T13:48:10.438Z,98449.16
2023-08-05T13:51:12.047Z,98347.03
2023-08-05T13:54:15.403Z,98132.09
2023-08-05T13:57:17.012Z,98299.25
2023-08-05T14:00:18.635Z,98212.06
2023-08-05T14:03:22.000Z,98260.34
2023-08-05T14:06:26.047Z,98122.78
2023-08-05T14:09:29.872Z,98244.84
2023-08-05T14:12:31.433Z,98270.59
2023-08-05T14:15:34.208Z,98144.38
2023-08-05T14:18:35.808Z,97919.47
2023-08-05T14:21:37.390Z,98016.69
2023-08-05T14:24:40.328Z,98035.28
2023-08-05T14:27:42.160Z,98160.47
2023-08-05T14:30:43.728Z,98240.53
2023-08-05T14:33:45.279Z,98242.38
2023-08-05T14:36:46.873Z,98289.44
2023-08-05T14:39:53.717Z,98370.56
2023-08-05T14:42:55.271Z,98456.91
2023-08-05T14:45:56.876Z,98579.41
2023-08-05T14:48:58.655Z,98653.19
2023-08-05T14:52:00.435Z,98670.53
2023-08-05T14:55:03.717Z,98670.03
2023-08-05T14:58:06.262Z,98584.66
2023-08-05T15:01:08.089Z,98674.44
2023-08-05T15:04:10.659Z,98621.88
2023-08-05T15:07:12.554Z,98547.78
2023-08-05T15:10:15.581Z,98532.53
2023-08-05T15:13:17.410Z,98725.63
2023-08-05T15:16:19.021Z,98659.25
2023-08-05T15:19:21.084Z,98677.44
2023-08-05T15:22:22.987Z,98692.84
2023-08-05T15:25:26.301Z,98500.25
2023-08-05T15:28:27.843Z,98601.63
2023-08-05T15:31:29.558Z,98513.06
2023-08-05T15:34:31.521Z,98329.28
2023-08-05T15:37:33.046Z,98217.63
2023-08-05T15:40:35.976Z,98137.78
2023-08-05T15:43:37.524Z,98154.19
2023-08-05T15:46:39.196Z,98250.28
2023-08-05T15:49:41.985Z,98197.09
2023-08-05T15:52:43.609Z,98129.97
2023-08-05T15:55:46.508Z,98083.06
2023-08-05T15:58:48.086Z,98188.22
2023-08-05T16:01:49.982Z,98235.91
2023-08-05T16:04:51.630Z,98203.75
2023-08-05T16:07:53.472Z,98298.41
2023-08-05T16:11:00.616Z,98338.28
2023-08-05T16:14:02.173Z,98393.63
2023-08-05T16:17:04.111Z,98220.69
2023-08-05T16:20:06.821Z,98237.97
2023-08-05T16:23:08.362Z,98339.91
2023-08-05T16:26:14.393Z,98534.72
2023-08-05T16:29:16.964Z,98669.69
2023-08-05T16:32:22.927Z,98688.75
2023-08-05T16:35:27.775Z,98745.28
2023-08-05T16:38:29.830Z,98745.19
2023-08-05T16:41:32.710Z,98766.78
2023-08-05T16:44:34.612Z,98697.59
2023-08-05T16:47:36.261Z,98683.25
2023-08-05T16:50:37.887Z,98706.72
2023-08-05T16:53:39.433Z,98744.09
2023-08-05T16:56:42.380Z,98747.00
2023-08-05T16:59:44.199Z,98743.00
2023-08-05T17:02:49.208Z,98711.13
2023-08-05T17:05:51.130Z,98643.81
2023-08-05T17:08:52.683Z,98580.13
2023-08-05T17:11:55.579Z,98678.91
2023-08-05T17:14:57.127Z,98759.56
2023-08-05T17:17:58.825Z,98768.25
2023-08-05T17:21:00.639Z,98758.03
2023-08-05T17:24:02.188Z,98725.13
2023-08-05T17:27:06.120Z,98701.22
2023-08-05T17:30:09.747Z,98656.88
2023-08-05T17:33:11.363Z,98635.19
2023-08-05T17:36:12.970Z,98616.22
2023-08-05T17:39:14.514Z,98561.59
2023-08-05T17:42:18.187Z,98572.41
2023-08-05T17:45:19.812Z,98558.44
2023-08-05T17:48:21.426Z,98567.16
2023-08-05T17:51:23.011Z,98620.28
2023-08-05T17:54:24.933Z,98562.63
2023-08-05T17:57:29.610Z,98503.22
2023-08-05T18:00:33.202Z,98559.16
2023-08-05T18:03:34.990Z,98544.59
2023-08-05T18:06:36.616Z,98554.44
2023-08-05T18:09:38.189Z,98665.53
2023-08-05T18:12:41.413Z,98677.97
2023-08-05T18:15:43.018Z,98671.75
2023-08-05T18:18:44.633Z,98689.66
2023-08-05T18:21:46.142Z,98703.91
2023-08-05T18:24:47.724Z,98727.81
2023-08-05T18:27:50.631Z,98788.00
2023-08-05T18:30:52.506Z,98830.41
2023-08-05T18:33:54.521Z,98844.56
2023-08-05T18:36:56.154Z,98845.44
2023-08-05T18:39:57.751Z,98845.66
2023-08-05T18:43:00.634Z,98842.00
2023-08-05T18:46:03.132Z,98844.16
2023-08-05T18:49:04.746Z,98853.66
2023-08-05T18:52:10.841Z,98869.81
2023-08-05T18:55:12.374Z,98883.88
2023-08-05T18:58:15.425Z,98905.34
2023-08-05T19:01:17.056Z,98933.31
2023-08-05T19:04:21.232Z,98963.50
2023-08-05T19:07:23.816Z,98984.41
2023-08-05T19:10:25.361Z,99002.38
2023-08-05T19:13:28.341Z,99018.09
2023-08-05T19:16:29.866Z,99045.19
2023-08-05T19:19:35.602Z,99041.47
2023-08-05T19:22:37.204Z,99049.94
2023-08-05T19:25:38.705Z,99060.06
2023-08-05T19:28:41.579Z,99071.19
2023-08-05T19:31:43.217Z,99080.94
2023-08-05T19:34:48.178Z,99096.50
2023-08-05T19:37:49.726Z,99092.06
2023-08-05T19:40:56.771Z,99112.56
2023-08-05T19:43:59.787Z,99114.41
2023-08-05T19:47:01.470Z,99117.91
2023-08-05T19:50:07.024Z,99127.63
2023-08-05T19:53:08.637Z,99145.47
2023-08-05T19:56:10.328Z,99141.69
2023-08-05T19:59:13.232Z,99155.53
2023-08-05T20:02:14.782Z,99164.59
2023-08-05T20:05:16.408Z,99175.19
2023-08-05T20:08:18.714Z,99180.13
2023-08-05T20:11:20.349Z,99184.06
2023-08-05T20:14:23.447Z,99185.06
2023-08-05T20:17:25.082Z,99192.91
2023-08-05T20:20:26.826Z,99201.97
2023-08-05T20:23:28.530Z,99205.06
2023-08-05T20:26:30.126Z,99225.63
2023-08-05T20:29:32.870Z,99224.66
2023-08-05T20:32:34.510Z,99227.03
2023-08-05T20:35:39.317Z,99247.75
2023-08-05T20:38:44.927Z,99262.59
2023-08-05T20:41:46.576Z,99268.53
2023-08-05T20:44:49.972Z,99283.00
2023-08-05T20:47:51.499Z,99281.16
2023-08-05T20:50:59.196Z,99303.00
2023-08-05T20:54:04.931Z,99317.00
2023-08-05T20:57:07.873Z,99326.00
2023-08-05T21:00:12.372Z,99333.59
2023-08-05T21:03:13.875Z,99347.63
2023-08-05T21:06:15.323Z,99371.41
2023-08-05T21:09:17.132Z,99371.97
2023-08-05T21:12:18.876Z,99372.44
2023-08-05T21:15:21.738Z,99386.50
2023-08-05T21:18:23.298Z,99391.81
2023-08-05T21:21:25.250Z,99406.91
2023-08-05T21:24:33.263Z,99411.00
2023-08-05T21:27:35.044Z,99422.31
2023-08-05T21:30:37.961Z,99419.53
2023-08-05T21:33:39.602Z,99429.72
2023-08-05T21:36:45.307Z,99447.19
2023-08-05T21:39:51.122Z,99462.38
2023-08-05T21:42:52.513Z,99453.25
2023-08-05T21:45:56.355Z,99473.69
2023-08-05T21:48:57.917Z,99475.34
2023-08-05T21:52:03.586Z,99476.84
2023-08-05T21:55:08.751Z,99487.22
2023-08-05T21:58:10.328Z,99498.53
2023-08-05T22:01:13.091Z,99505.25
2023-08-05T22:04:15.117Z,99512.88
2023-08-05T22:07:16.513Z,99516.13
2023-08-05T22:10:24.811Z,99521.84
2023-08-05T22:13:26.392Z,99529.56
2023-08-05T22:16:29.194Z,99550.69
2023-08-05T22:19:30.724Z,99547.50
2023-08-05T22:22:32.331Z,99562.25
2023-08-05T22:25:33.735Z,99564.94
2023-08-05T22:28:35.300Z,99567.53
2023-08-05T22:31:38.164Z,99585.88
2023-08-05T22:34:39.769Z,99592.91
2023-08-05T22:37:47.876Z,99607.00
2023-08-05T22:40:49.491Z,99612.06
2023-08-05T22:43:50.968Z,99630.59
2023-08-05T22:46:53.992Z,99632.16
2023-08-05T22:49:55.791Z,99660.41
2023-08-05T22:53:00.913Z,99671.28
2023-08-05T22:56:09.231Z,99690.44
2023-08-05T22:59:10.755Z,99693.69
2023-08-05T23:02:13.471Z,99702.28
2023-08-05T23:05:15.186Z,99708.81
2023-08-05T23:08:20.312Z,99721.09
2023-08-05T23:11:21.850Z,99747.47
2023-08-05T23:14:23.232Z,99771.16
2023-08-05T23:17:26.106Z,99785.75
2023-08-05T23:20:27.629Z,99790.13
2023-08-05T23:23:35.913Z,99810.06
2023-08-05T23:26:37.568Z,99823.25
2023-08-05T23:29:38.970Z,99824.97
2023-08-05T23:32:41.851Z,99836.91
2023-08-05T23:39:07.204Z,99868.63
2023-08-05T23:42:08.598Z,99875.38
2023-08-05T23:45:10.644Z,99891.28
2023-08-05T23:48:13.700Z,99901.16
2023-08-05T23:51:15.343Z,99908.91
2023-08-05T23:54:16.972Z,99912.59
2023-08-05T23:57:18.372Z,99913.44
